Aalborg, Denmark

4:22 PM CEST on March 29, 2017 (GMT +0200)
Vesterbro | | Change Station

Elev 29 ft 57.05 °N, 9.92 °E | Updated 11 minutes ago

Overcast
Overcast
45.0 °F
Feels Like 41 °F
N
7.5
Wind Variable Wind from NNW
Gusts 12.4 mph

Today
High -- | Low -- °F
--% Chance of Precip.
Yesterday
High -- | Low -- °F
Precip. -- in
Pressure 30.04 in
Visibility 6.2 miles
Clouds Few 1800 ft
Scattered Clouds 2500 ft
Overcast 2900 ft
Windchill 41 °F
Dew Point 37 °F
Humidity 74%
Rainfall 0.09 in
Snow Depth Not available.
6:57 AM 7:53 PM
Waxing Crescent, 3% visible
METAR EKYT 291350Z AUTO 31009KT 280V350 9999NDV FEW018/// SCT025/// OVC029/// 08/03 Q1017
Pressure 30.04 in
Visibility 6.2 miles
Clouds Few 1800 ft
Scattered Clouds 2500 ft
Overcast 2900 ft
Windchill 41 °F
Dew Point 37 °F
Humidity 74%
Rainfall 0.09 in
Snow Depth Not available.
6:57 AM 7:53 PM
Waxing Crescent, 3% visible
METAR EKYT 291350Z AUTO 31009KT 280V350 9999NDV FEW018/// SCT025/// OVC029/// 08/03 Q1017

Get Severe Weather Alerts

Thanks for signing up!

Be on the lookout for a verification email in your inbox.

You'll start receiving the daily forecast at 8 AM.

×

10-Day Weather Forecast

×

Almanac

Astronomy

Mar. 29, 2017 Rise Set
Actual Time
Civil Twilight
Nautical Twilight
Astronomical Twilight
Moon
Length of Visible Light
Length of Day
Tomorrow will be .
, % of the Moon is Illuminated

Today's Extremes

Country Highs Country Lows

Community

WunderPhotos

Upload Photos

1,962,540 photos uploaded!

WunderBlog® & News

Nearby

Air Quality

  Air Quality AQ Index Pollutant
Not available.

Snow Depth

Station Depth Elevation

Earthquake Activity

City Distance Mag. Time & Date
Minimum magnitude displayed is 2.5.

Earthquake Activity

City Distance Mag. Time & Date
Minimum magnitude displayed is 2.5.

Coastal Water Temperatures

Place Temperature

Stations

Nearby Weather Stations

Station Location Temp. Windchill Dew Point Humidity Wind Precip. Elev Updated Type